sensor_id;sensor_type;location;lat;lon;timestamp;P1;durP1;ratioP1;P2;durP2;ratioP2
61344;SDS011;47216;42.656;23.232;2023-06-01T00:02:22;6.33;;;3.37;;
61344;SDS011;47216;42.656;23.232;2023-06-01T00:04:51;9.23;;;3.80;;
61344;SDS011;47216;42.656;23.232;2023-06-01T00:07:17;6.60;;;4.07;;
61344;SDS011;47216;42.656;23.232;2023-06-01T00:09:44;7.70;;;3.97;;
61344;SDS011;47216;42.656;23.232;2023-06-01T00:12:11;8.00;;;3.83;;
61344;SDS011;47216;42.656;23.232;2023-06-01T00:14:38;7.37;;;3.80;;
61344;SDS011;47216;42.656;23.232;2023-06-01T00:17:05;5.87;;;3.37;;
61344;SDS011;47216;42.656;23.232;2023-06-01T00:19:32;5.43;;;3.47;;
61344;SDS011;47216;42.656;23.232;2023-06-01T00:22:01;7.30;;;3.57;;
61344;SDS011;47216;42.656;23.232;2023-06-01T00:24:28;6.33;;;3.80;;
61344;SDS011;47216;42.656;23.232;2023-06-01T00:26:55;6.10;;;3.50;;
61344;SDS011;47216;42.656;23.232;2023-06-01T00:29:22;5.80;;;3.80;;
61344;SDS011;47216;42.656;23.232;2023-06-01T00:31:49;5.60;;;3.97;;
61344;SDS011;47216;42.656;23.232;2023-06-01T00:34:15;6.93;;;4.00;;
61344;SDS011;47216;42.656;23.232;2023-06-01T00:36:42;4.90;;;3.53;;
61344;SDS011;47216;42.656;23.232;2023-06-01T00:39:11;5.47;;;3.80;;
61344;SDS011;47216;42.656;23.232;2023-06-01T00:41:38;4.73;;;3.50;;
61344;SDS011;47216;42.656;23.232;2023-06-01T00:44:04;15.73;;;4.00;;
61344;SDS011;47216;42.656;23.232;2023-06-01T00:46:31;6.43;;;3.33;;
61344;SDS011;47216;42.656;23.232;2023-06-01T00:48:59;5.37;;;3.70;;
61344;SDS011;47216;42.656;23.232;2023-06-01T00:51:26;5.47;;;4.10;;
61344;SDS011;47216;42.656;23.232;2023-06-01T00:53:53;7.97;;;3.73;;
61344;SDS011;47216;42.656;23.232;2023-06-01T00:56:21;5.10;;;3.50;;
61344;SDS011;47216;42.656;23.232;2023-06-01T00:58:48;5.03;;;3.63;;
61344;SDS011;47216;42.656;23.232;2023-06-01T01:01:15;4.17;;;3.67;;
61344;SDS011;47216;42.656;23.232;2023-06-01T01:03:46;8.70;;;4.47;;
61344;SDS011;47216;42.656;23.232;2023-06-01T01:06:17;5.07;;;3.93;;
61344;SDS011;47216;42.656;23.232;2023-06-01T01:08:54;7.40;;;3.83;;
61344;SDS011;47216;42.656;23.232;2023-06-01T01:11:34;12.87;;;4.30;;
61344;SDS011;47216;42.656;23.232;2023-06-01T01:14:05;7.00;;;4.03;;
61344;SDS011;47216;42.656;23.232;2023-06-01T01:16:39;6.73;;;4.43;;
61344;SDS011;47216;42.656;23.232;2023-06-01T01:19:17;14.23;;;4.17;;
61344;SDS011;47216;42.656;23.232;2023-06-01T01:22:12;6.37;;;3.67;;
61344;SDS011;47216;42.656;23.232;2023-06-01T01:25:02;5.33;;;4.37;;
61344;SDS011;47216;42.656;23.232;2023-06-01T01:27:44;8.77;;;4.03;;
61344;SDS011;47216;42.656;23.232;2023-06-01T01:30:26;6.10;;;4.00;;
61344;SDS011;47216;42.656;23.232;2023-06-01T01:32:55;11.40;;;4.10;;
61344;SDS011;47216;42.656;23.232;2023-06-01T01:35:22;5.97;;;4.07;;
61344;SDS011;47216;42.656;23.232;2023-06-01T01:37:51;5.00;;;3.97;;
61344;SDS011;47216;42.656;23.232;2023-06-01T01:40:19;5.07;;;4.17;;
61344;SDS011;47216;42.656;23.232;2023-06-01T01:42:47;8.20;;;4.03;;
61344;SDS011;47216;42.656;23.232;2023-06-01T01:45:16;5.40;;;3.80;;
61344;SDS011;47216;42.656;23.232;2023-06-01T01:47:47;6.43;;;4.03;;
61344;SDS011;47216;42.656;23.232;2023-06-01T01:50:21;6.00;;;4.30;;
61344;SDS011;47216;42.656;23.232;2023-06-01T01:52:57;8.17;;;4.17;;
61344;SDS011;47216;42.656;23.232;2023-06-01T01:55:25;6.10;;;4.10;;
61344;SDS011;47216;42.656;23.232;2023-06-01T01:57:53;7.43;;;4.47;;
61344;SDS011;47216;42.656;23.232;2023-06-01T02:00:22;7.07;;;4.43;;
61344;SDS011;47216;42.656;23.232;2023-06-01T02:02:51;5.80;;;3.87;;
61344;SDS011;47216;42.656;23.232;2023-06-01T02:05:18;14.00;;;4.20;;
61344;SDS011;47216;42.656;23.232;2023-06-01T02:07:45;6.27;;;3.93;;
61344;SDS011;47216;42.656;23.232;2023-06-01T02:10:12;5.77;;;3.77;;
61344;SDS011;47216;42.656;23.232;2023-06-01T02:12:39;10.30;;;4.20;;
61344;SDS011;47216;42.656;23.232;2023-06-01T02:15:06;11.23;;;4.10;;
61344;SDS011;47216;42.656;23.232;2023-06-01T02:17:33;9.00;;;3.80;;
61344;SDS011;47216;42.656;23.232;2023-06-01T02:20:04;9.40;;;4.00;;
61344;SDS011;47216;42.656;23.232;2023-06-01T02:22:32;4.93;;;4.10;;
61344;SDS011;47216;42.656;23.232;2023-06-01T02:24:59;5.83;;;3.90;;
61344;SDS011;47216;42.656;23.232;2023-06-01T02:27:30;5.33;;;3.73;;
61344;SDS011;47216;42.656;23.232;2023-06-01T02:29:57;6.50;;;3.90;;
61344;SDS011;47216;42.656;23.232;2023-06-01T02:32:23;7.83;;;3.70;;
61344;SDS011;47216;42.656;23.232;2023-06-01T02:34:51;5.53;;;4.03;;
61344;SDS011;47216;42.656;23.232;2023-06-01T02:37:20;6.20;;;4.07;;
61344;SDS011;47216;42.656;23.232;2023-06-01T02:39:46;5.07;;;3.90;;
61344;SDS011;47216;42.656;23.232;2023-06-01T02:42:13;7.57;;;3.60;;
61344;SDS011;47216;42.656;23.232;2023-06-01T02:44:40;8.43;;;3.80;;
61344;SDS011;47216;42.656;23.232;2023-06-01T02:47:07;8.90;;;4.10;;
61344;SDS011;47216;42.656;23.232;2023-06-01T02:49:35;4.83;;;3.53;;
61344;SDS011;47216;42.656;23.232;2023-06-01T02:52:02;8.17;;;4.30;;
61344;SDS011;47216;42.656;23.232;2023-06-01T02:54:30;6.13;;;4.20;;
61344;SDS011;47216;42.656;23.232;2023-06-01T02:56:57;4.00;;;3.53;;
61344;SDS011;47216;42.656;23.232;2023-06-01T02:59:24;5.10;;;3.93;;
61344;SDS011;47216;42.656;23.232;2023-06-01T03:01:50;5.97;;;4.13;;
61344;SDS011;47216;42.656;23.232;2023-06-01T03:04:17;6.20;;;3.60;;
61344;SDS011;47216;42.656;23.232;2023-06-01T03:06:45;7.27;;;4.23;;
61344;SDS011;47216;42.656;23.232;2023-06-01T03:09:14;5.27;;;3.97;;
61344;SDS011;47216;42.656;23.232;2023-06-01T03:11:43;7.37;;;3.73;;
61344;SDS011;47216;42.656;23.232;2023-06-01T03:14:10;9.03;;;4.07;;
61344;SDS011;47216;42.656;23.232;2023-06-01T03:16:37;6.30;;;4.27;;
61344;SDS011;47216;42.656;23.232;2023-06-01T03:19:04;6.07;;;3.80;;
61344;SDS011;47216;42.656;23.232;2023-06-01T03:21:31;6.13;;;3.97;;
61344;SDS011;47216;42.656;23.232;2023-06-01T03:23:59;7.93;;;3.97;;
61344;SDS011;47216;42.656;23.232;2023-06-01T03:26:26;8.50;;;3.70;;
61344;SDS011;47216;42.656;23.232;2023-06-01T03:28:55;3.53;;;3.10;;
61344;SDS011;47216;42.656;23.232;2023-06-01T03:31:21;8.60;;;4.03;;
61344;SDS011;47216;42.656;23.232;2023-06-01T03:33:49;7.80;;;4.40;;
61344;SDS011;47216;42.656;23.232;2023-06-01T03:36:16;5.73;;;3.90;;
61344;SDS011;47216;42.656;23.232;2023-06-01T03:38:43;6.57;;;4.33;;
61344;SDS011;47216;42.656;23.232;2023-06-01T03:41:09;8.40;;;4.13;;
61344;SDS011;47216;42.656;23.232;2023-06-01T03:43:36;6.20;;;3.70;;
61344;SDS011;47216;42.656;23.232;2023-06-01T03:46:05;5.27;;;4.20;;
61344;SDS011;47216;42.656;23.232;2023-06-01T03:48:32;7.80;;;4.40;;
61344;SDS011;47216;42.656;23.232;2023-06-01T03:50:59;5.30;;;4.13;;
61344;SDS011;47216;42.656;23.232;2023-06-01T03:53:26;10.47;;;3.70;;
61344;SDS011;47216;42.656;23.232;2023-06-01T03:55:52;6.70;;;4.37;;
61344;SDS011;47216;42.656;23.232;2023-06-01T03:58:20;9.53;;;4.70;;
61344;SDS011;47216;42.656;23.232;2023-06-01T04:00:46;6.17;;;4.07;;
61344;SDS011;47216;42.656;23.232;2023-06-01T04:03:15;5.47;;;4.03;;
61344;SDS011;47216;42.656;23.232;2023-06-01T04:05:46;6.57;;;3.90;;
61344;SDS011;47216;42.656;23.232;2023-06-01T04:08:15;6.23;;;4.37;;
61344;SDS011;47216;42.656;23.232;2023-06-01T04:10:42;5.43;;;3.80;;
61344;SDS011;47216;42.656;23.232;2023-06-01T04:13:09;5.70;;;4.10;;
61344;SDS011;47216;42.656;23.232;2023-06-01T04:15:36;7.87;;;3.93;;
61344;SDS011;47216;42.656;23.232;2023-06-01T04:18:03;7.27;;;4.53;;
61344;SDS011;47216;42.656;23.232;2023-06-01T04:20:31;7.77;;;4.30;;
61344;SDS011;47216;42.656;23.232;2023-06-01T04:23:00;8.00;;;4.50;;
61344;SDS011;47216;42.656;23.232;2023-06-01T04:25:26;8.07;;;4.93;;
61344;SDS011;47216;42.656;23.232;2023-06-01T04:27:55;9.00;;;4.93;;
61344;SDS011;47216;42.656;23.232;2023-06-01T04:30:22;6.07;;;5.00;;
61344;SDS011;47216;42.656;23.232;2023-06-01T04:32:49;10.27;;;5.00;;
61344;SDS011;47216;42.656;23.232;2023-06-01T04:35:16;7.07;;;4.60;;
61344;SDS011;47216;42.656;23.232;2023-06-01T04:37:44;9.50;;;4.60;;
61344;SDS011;47216;42.656;23.232;2023-06-01T04:40:11;7.30;;;5.20;;
61344;SDS011;47216;42.656;23.232;2023-06-01T04:42:39;8.90;;;5.23;;
61344;SDS011;47216;42.656;23.232;2023-06-01T04:45:07;9.23;;;4.63;;
61344;SDS011;47216;42.656;23.232;2023-06-01T04:47:35;7.90;;;4.67;;
61344;SDS011;47216;42.656;23.232;2023-06-01T04:50:05;8.60;;;4.80;;
61344;SDS011;47216;42.656;23.232;2023-06-01T04:52:33;5.80;;;4.70;;
61344;SDS011;47216;42.656;23.232;2023-06-01T04:55:02;6.73;;;4.93;;
61344;SDS011;47216;42.656;23.232;2023-06-01T04:57:30;6.77;;;4.53;;
61344;SDS011;47216;42.656;23.232;2023-06-01T04:59:57;7.67;;;4.97;;
61344;SDS011;47216;42.656;23.232;2023-06-01T05:02:24;7.37;;;4.87;;
61344;SDS011;47216;42.656;23.232;2023-06-01T05:04:51;8.77;;;5.97;;
61344;SDS011;47216;42.656;23.232;2023-06-01T05:07:18;9.20;;;5.60;;
61344;SDS011;47216;42.656;23.232;2023-06-01T05:09:46;9.33;;;5.77;;
61344;SDS011;47216;42.656;23.232;2023-06-01T05:12:14;12.07;;;6.13;;
61344;SDS011;47216;42.656;23.232;2023-06-01T05:14:42;7.60;;;5.20;;
61344;SDS011;47216;42.656;23.232;2023-06-01T05:17:08;10.63;;;5.37;;
61344;SDS011;47216;42.656;23.232;2023-06-01T05:19:35;8.03;;;4.10;;
61344;SDS011;47216;42.656;23.232;2023-06-01T05:22:02;10.77;;;6.60;;
61344;SDS011;47216;42.656;23.232;2023-06-01T05:24:29;11.47;;;6.27;;
61344;SDS011;47216;42.656;23.232;2023-06-01T05:26:56;7.03;;;5.77;;
61344;SDS011;47216;42.656;23.232;2023-06-01T05:29:24;14.57;;;5.80;;
61344;SDS011;47216;42.656;23.232;2023-06-01T05:31:52;9.70;;;6.13;;
61344;SDS011;47216;42.656;23.232;2023-06-01T05:34:18;8.83;;;6.33;;
61344;SDS011;47216;42.656;23.232;2023-06-01T05:36:46;8.40;;;5.10;;
61344;SDS011;47216;42.656;23.232;2023-06-01T05:39:13;70.00;;;21.17;;
61344;SDS011;47216;42.656;23.232;2023-06-01T05:41:41;67.13;;;22.90;;
61344;SDS011;47216;42.656;23.232;2023-06-01T05:44:08;31.50;;;14.90;;
61344;SDS011;47216;42.656;23.232;2023-06-01T05:46:36;27.13;;;13.57;;
61344;SDS011;47216;42.656;23.232;2023-06-01T05:49:03;43.57;;;18.13;;
61344;SDS011;47216;42.656;23.232;2023-06-01T05:51:30;49.70;;;20.63;;
61344;SDS011;47216;42.656;23.232;2023-06-01T05:54:01;48.77;;;23.40;;
61344;SDS011;47216;42.656;23.232;2023-06-01T05:56:28;45.70;;;22.63;;
61344;SDS011;47216;42.656;23.232;2023-06-01T05:58:55;44.87;;;21.40;;
61344;SDS011;47216;42.656;23.232;2023-06-01T06:01:22;35.23;;;18.27;;
61344;SDS011;47216;42.656;23.232;2023-06-01T06:03:50;54.20;;;23.07;;
61344;SDS011;47216;42.656;23.232;2023-06-01T06:06:17;67.93;;;24.80;;
61344;SDS011;47216;42.656;23.232;2023-06-01T06:08:44;64.60;;;27.10;;
61344;SDS011;47216;42.656;23.232;2023-06-01T06:11:11;28.10;;;13.43;;
61344;SDS011;47216;42.656;23.232;2023-06-01T06:13:38;69.93;;;28.73;;
61344;SDS011;47216;42.656;23.232;2023-06-01T06:16:05;47.83;;;21.83;;
61344;SDS011;47216;42.656;23.232;2023-06-01T06:18:32;21.53;;;14.60;;
61344;SDS011;47216;42.656;23.232;2023-06-01T06:21:01;18.40;;;12.03;;
61344;SDS011;47216;42.656;23.232;2023-06-01T06:23:27;17.73;;;12.40;;
61344;SDS011;47216;42.656;23.232;2023-06-01T06:25:55;18.33;;;12.63;;
61344;SDS011;47216;42.656;23.232;2023-06-01T06:28:22;20.87;;;12.83;;
61344;SDS011;47216;42.656;23.232;2023-06-01T06:30:48;18.07;;;12.93;;
61344;SDS011;47216;42.656;23.232;2023-06-01T06:33:16;16.30;;;11.87;;
61344;SDS011;47216;42.656;23.232;2023-06-01T06:35:43;15.40;;;11.77;;
61344;SDS011;47216;42.656;23.232;2023-06-01T06:38:12;18.60;;;12.30;;
61344;SDS011;47216;42.656;23.232;2023-06-01T06:40:39;17.30;;;11.87;;
61344;SDS011;47216;42.656;23.232;2023-06-01T06:43:06;17.90;;;12.00;;
61344;SDS011;47216;42.656;23.232;2023-06-01T06:45:32;16.70;;;11.87;;
61344;SDS011;47216;42.656;23.232;2023-06-01T06:47:59;16.53;;;11.30;;
61344;SDS011;47216;42.656;23.232;2023-06-01T06:50:26;17.43;;;11.77;;
61344;SDS011;47216;42.656;23.232;2023-06-01T06:52:53;19.00;;;11.37;;
61344;SDS011;47216;42.656;23.232;2023-06-01T06:55:23;17.37;;;11.33;;
61344;SDS011;47216;42.656;23.232;2023-06-01T06:57:49;21.00;;;11.20;;
61344;SDS011;47216;42.656;23.232;2023-06-01T07:00:16;18.03;;;11.77;;
61344;SDS011;47216;42.656;23.232;2023-06-01T07:02:44;16.87;;;11.30;;
61344;SDS011;47216;42.656;23.232;2023-06-01T07:05:11;17.17;;;11.67;;
61344;SDS011;47216;42.656;23.232;2023-06-01T07:07:40;19.43;;;11.47;;
61344;SDS011;47216;42.656;23.232;2023-06-01T07:10:07;15.47;;;11.37;;
61344;SDS011;47216;42.656;23.232;2023-06-01T07:12:36;18.93;;;11.90;;
61344;SDS011;47216;42.656;23.232;2023-06-01T07:15:03;20.00;;;10.50;;
61344;SDS011;47216;42.656;23.232;2023-06-01T07:17:31;17.00;;;11.37;;
61344;SDS011;47216;42.656;23.232;2023-06-01T07:19:57;19.90;;;11.30;;
61344;SDS011;47216;42.656;23.232;2023-06-01T07:22:26;19.73;;;10.40;;
61344;SDS011;47216;42.656;23.232;2023-06-01T07:24:53;13.57;;;9.97;;
61344;SDS011;47216;42.656;23.232;2023-06-01T07:27:19;18.10;;;10.67;;
61344;SDS011;47216;42.656;23.232;2023-06-01T07:29:48;15.63;;;11.53;;
61344;SDS011;47216;42.656;23.232;2023-06-01T07:32:20;14.53;;;10.20;;
61344;SDS011;47216;42.656;23.232;2023-06-01T07:34:46;13.77;;;9.63;;
61344;SDS011;47216;42.656;23.232;2023-06-01T07:37:13;13.05;;;10.52;;
61344;SDS011;47216;42.656;23.232;2023-06-01T07:39:40;15.30;;;10.77;;
61344;SDS011;47216;42.656;23.232;2023-06-01T07:42:07;13.77;;;9.45;;
61344;SDS011;47216;42.656;23.232;2023-06-01T07:44:34;15.70;;;8.80;;
61344;SDS011;47216;42.656;23.232;2023-06-01T07:47:03;13.75;;;9.85;;
61344;SDS011;47216;42.656;23.232;2023-06-01T07:49:31;18.60;;;10.38;;
61344;SDS011;47216;42.656;23.232;2023-06-01T07:52:00;12.07;;;8.80;;
61344;SDS011;47216;42.656;23.232;2023-06-01T07:54:27;11.18;;;8.05;;
61344;SDS011;47216;42.656;23.232;2023-06-01T07:56:54;11.00;;;7.10;;
61344;SDS011;47216;42.656;23.232;2023-06-01T07:59:22;9.68;;;7.03;;
61344;SDS011;47216;42.656;23.232;2023-06-01T08:01:49;10.27;;;7.18;;
61344;SDS011;47216;42.656;23.232;2023-06-01T08:04:18;12.20;;;7.30;;
61344;SDS011;47216;42.656;23.232;2023-06-01T08:06:46;9.30;;;7.28;;
61344;SDS011;47216;42.656;23.232;2023-06-01T08:09:13;10.10;;;7.55;;
61344;SDS011;47216;42.656;23.232;2023-06-01T08:11:39;14.40;;;8.05;;
61344;SDS011;47216;42.656;23.232;2023-06-01T08:14:06;14.70;;;7.63;;
61344;SDS011;47216;42.656;23.232;2023-06-01T08:16:34;9.95;;;7.00;;
61344;SDS011;47216;42.656;23.232;2023-06-01T08:19:01;10.07;;;8.15;;
61344;SDS011;47216;42.656;23.232;2023-06-01T08:21:29;11.98;;;8.40;;
61344;SDS011;47216;42.656;23.232;2023-06-01T08:23:56;14.63;;;8.90;;
61344;SDS011;47216;42.656;23.232;2023-06-01T08:26:24;11.68;;;8.55;;
61344;SDS011;47216;42.656;23.232;2023-06-01T08:28:51;11.40;;;8.65;;
61344;SDS011;47216;42.656;23.232;2023-06-01T08:31:19;13.80;;;9.98;;
61344;SDS011;47216;42.656;23.232;2023-06-01T08:33:46;17.08;;;9.55;;
61344;SDS011;47216;42.656;23.232;2023-06-01T08:36:14;12.27;;;10.00;;
61344;SDS011;47216;42.656;23.232;2023-06-01T08:38:42;15.10;;;9.73;;
61344;SDS011;47216;42.656;23.232;2023-06-01T08:41:11;13.23;;;9.25;;
61344;SDS011;47216;42.656;23.232;2023-06-01T08:43:45;15.90;;;10.15;;
61344;SDS011;47216;42.656;23.232;2023-06-01T08:46:20;14.75;;;10.48;;
61344;SDS011;47216;42.656;23.232;2023-06-01T08:48:48;13.65;;;9.60;;
61344;SDS011;47216;42.656;23.232;2023-06-01T08:51:19;12.75;;;9.05;;
61344;SDS011;47216;42.656;23.232;2023-06-01T08:53:49;12.77;;;9.00;;
61344;SDS011;47216;42.656;23.232;2023-06-01T08:56:16;12.13;;;9.30;;
61344;SDS011;47216;42.656;23.232;2023-06-01T08:58:43;12.25;;;8.55;;
61344;SDS011;47216;42.656;23.232;2023-06-01T09:01:12;13.18;;;9.10;;
61344;SDS011;47216;42.656;23.232;2023-06-01T09:03:46;13.65;;;8.90;;
61344;SDS011;47216;42.656;23.232;2023-06-01T09:06:15;16.38;;;9.27;;
61344;SDS011;47216;42.656;23.232;2023-06-01T09:08:44;16.92;;;9.48;;
61344;SDS011;47216;42.656;23.232;2023-06-01T09:11:12;15.15;;;8.63;;
61344;SDS011;47216;42.656;23.232;2023-06-01T09:13:40;12.13;;;8.02;;
61344;SDS011;47216;42.656;23.232;2023-06-01T09:16:08;12.68;;;8.98;;
61344;SDS011;47216;42.656;23.232;2023-06-01T09:18:35;13.80;;;7.93;;
61344;SDS011;47216;42.656;23.232;2023-06-01T09:21:11;11.50;;;7.65;;
61344;SDS011;47216;42.656;23.232;2023-06-01T09:23:39;13.15;;;7.60;;
61344;SDS011;47216;42.656;23.232;2023-06-01T09:26:07;12.40;;;7.57;;
61344;SDS011;47216;42.656;23.232;2023-06-01T09:28:56;10.82;;;7.28;;
61344;SDS011;47216;42.656;23.232;2023-06-01T09:31:40;10.63;;;6.88;;
61344;SDS011;47216;42.656;23.232;2023-06-01T09:34:08;11.70;;;7.75;;
61344;SDS011;47216;42.656;23.232;2023-06-01T09:36:37;13.32;;;6.95;;
61344;SDS011;47216;42.656;23.232;2023-06-01T09:39:05;10.52;;;7.30;;
61344;SDS011;47216;42.656;23.232;2023-06-01T09:41:46;10.15;;;6.28;;
61344;SDS011;47216;42.656;23.232;2023-06-01T09:44:22;11.70;;;6.72;;
61344;SDS011;47216;42.656;23.232;2023-06-01T09:46:51;10.98;;;6.68;;
61344;SDS011;47216;42.656;23.232;2023-06-01T09:49:19;16.10;;;8.40;;
61344;SDS011;47216;42.656;23.232;2023-06-01T09:51:47;12.00;;;8.80;;
61344;SDS011;47216;42.656;23.232;2023-06-01T09:54:27;13.55;;;7.90;;
61344;SDS011;47216;42.656;23.232;2023-06-01T09:56:54;11.48;;;6.80;;
61344;SDS011;47216;42.656;23.232;2023-06-01T09:59:23;6.88;;;5.68;;
61344;SDS011;47216;42.656;23.232;2023-06-01T10:01:52;7.65;;;5.97;;
61344;SDS011;47216;42.656;23.232;2023-06-01T10:04:21;8.52;;;5.70;;
61344;SDS011;47216;42.656;23.232;2023-06-01T10:06:50;10.82;;;5.35;;
61344;SDS011;47216;42.656;23.232;2023-06-01T10:09:19;6.43;;;4.85;;
61344;SDS011;47216;42.656;23.232;2023-06-01T10:11:47;5.72;;;4.38;;
61344;SDS011;47216;42.656;23.232;2023-06-01T10:14:18;8.52;;;4.43;;
61344;SDS011;47216;42.656;23.232;2023-06-01T10:16:48;6.80;;;4.78;;
61344;SDS011;47216;42.656;23.232;2023-06-01T10:19:16;5.70;;;4.70;;
61344;SDS011;47216;42.656;23.232;2023-06-01T10:21:45;8.07;;;4.80;;
61344;SDS011;47216;42.656;23.232;2023-06-01T10:24:12;7.25;;;5.40;;
61344;SDS011;47216;42.656;23.232;2023-06-01T10:26:44;8.85;;;5.53;;
61344;SDS011;47216;42.656;23.232;2023-06-01T10:29:18;7.18;;;5.63;;
61344;SDS011;47216;42.656;23.232;2023-06-01T10:31:47;8.05;;;5.38;;
61344;SDS011;47216;42.656;23.232;2023-06-01T10:34:14;11.02;;;5.70;;
61344;SDS011;47216;42.656;23.232;2023-06-01T10:39:36;9.13;;;5.50;;
61344;SDS011;47216;42.656;23.232;2023-06-01T10:45:04;9.53;;;5.43;;
61344;SDS011;47216;42.656;23.232;2023-06-01T10:47:46;13.60;;;6.27;;
61344;SDS011;47216;42.656;23.232;2023-06-01T10:50:16;7.60;;;5.37;;
61344;SDS011;47216;42.656;23.232;2023-06-01T10:52:44;7.30;;;5.80;;
61344;SDS011;47216;42.656;23.232;2023-06-01T10:55:21;7.93;;;6.23;;
61344;SDS011;47216;42.656;23.232;2023-06-01T10:57:51;9.37;;;5.80;;
61344;SDS011;47216;42.656;23.232;2023-06-01T11:00:39;6.83;;;5.93;;
61344;SDS011;47216;42.656;23.232;2023-06-01T11:03:07;8.70;;;6.07;;
61344;SDS011;47216;42.656;23.232;2023-06-01T11:05:40;6.73;;;5.77;;
61344;SDS011;47216;42.656;23.232;2023-06-01T11:11:18;8.63;;;6.17;;
61344;SDS011;47216;42.656;23.232;2023-06-01T11:16:37;6.33;;;5.37;;
61344;SDS011;47216;42.656;23.232;2023-06-01T11:19:05;10.17;;;6.33;;
61344;SDS011;47216;42.656;23.232;2023-06-01T11:21:34;7.53;;;6.53;;
61344;SDS011;47216;42.656;23.232;2023-06-01T11:24:05;7.97;;;6.20;;
61344;SDS011;47216;42.656;23.232;2023-06-01T11:26:35;7.23;;;5.80;;
61344;SDS011;47216;42.656;23.232;2023-06-01T11:29:07;7.50;;;5.73;;
61344;SDS011;47216;42.656;23.232;2023-06-01T11:31:38;7.23;;;5.90;;
61344;SDS011;47216;42.656;23.232;2023-06-01T11:34:06;8.00;;;5.40;;
61344;SDS011;47216;42.656;23.232;2023-06-01T11:36:38;8.60;;;5.80;;
61344;SDS011;47216;42.656;23.232;2023-06-01T11:39:15;5.90;;;5.30;;
61344;SDS011;47216;42.656;23.232;2023-06-01T11:41:45;8.40;;;4.70;;
61344;SDS011;47216;42.656;23.232;2023-06-01T11:44:12;5.10;;;4.47;;
61344;SDS011;47216;42.656;23.232;2023-06-01T11:46:50;5.80;;;4.20;;
61344;SDS011;47216;42.656;23.232;2023-06-01T11:49:22;9.90;;;4.97;;
61344;SDS011;47216;42.656;23.232;2023-06-01T11:51:49;6.37;;;5.13;;
61344;SDS011;47216;42.656;23.232;2023-06-01T11:54:21;8.03;;;4.90;;
61344;SDS011;47216;42.656;23.232;2023-06-01T11:56:49;8.33;;;4.80;;
61344;SDS011;47216;42.656;23.232;2023-06-01T11:59:17;5.43;;;4.70;;
61344;SDS011;47216;42.656;23.232;2023-06-01T12:01:45;7.43;;;5.03;;
61344;SDS011;47216;42.656;23.232;2023-06-01T12:04:14;6.17;;;4.80;;
61344;SDS011;47216;42.656;23.232;2023-06-01T12:06:41;7.00;;;5.13;;
61344;SDS011;47216;42.656;23.232;2023-06-01T12:09:10;5.93;;;4.50;;
61344;SDS011;47216;42.656;23.232;2023-06-01T12:11:38;6.77;;;4.97;;
61344;SDS011;47216;42.656;23.232;2023-06-01T12:14:08;7.27;;;4.80;;
61344;SDS011;47216;42.656;23.232;2023-06-01T12:16:51;6.10;;;4.70;;
61344;SDS011;47216;42.656;23.232;2023-06-01T12:19:24;6.63;;;4.57;;
61344;SDS011;47216;42.656;23.232;2023-06-01T12:21:54;8.10;;;5.17;;
61344;SDS011;47216;42.656;23.232;2023-06-01T12:24:31;10.50;;;5.57;;
61344;SDS011;47216;42.656;23.232;2023-06-01T12:26:59;7.47;;;5.20;;
61344;SDS011;47216;42.656;23.232;2023-06-01T12:29:36;9.67;;;5.50;;
61344;SDS011;47216;42.656;23.232;2023-06-01T12:32:04;7.30;;;5.00;;
61344;SDS011;47216;42.656;23.232;2023-06-01T12:34:33;8.40;;;5.03;;
61344;SDS011;47216;42.656;23.232;2023-06-01T12:37:10;7.90;;;5.83;;
61344;SDS011;47216;42.656;23.232;2023-06-01T12:39:38;6.27;;;5.00;;
61344;SDS011;47216;42.656;23.232;2023-06-01T12:42:07;7.63;;;5.47;;
61344;SDS011;47216;42.656;23.232;2023-06-01T12:44:35;6.63;;;4.63;;
61344;SDS011;47216;42.656;23.232;2023-06-01T12:47:02;7.63;;;4.40;;
61344;SDS011;47216;42.656;23.232;2023-06-01T12:49:30;6.20;;;4.30;;
61344;SDS011;47216;42.656;23.232;2023-06-01T12:51:58;5.70;;;4.27;;
61344;SDS011;47216;42.656;23.232;2023-06-01T12:54:26;7.97;;;4.07;;
61344;SDS011;47216;42.656;23.232;2023-06-01T12:56:53;5.83;;;4.20;;
61344;SDS011;47216;42.656;23.232;2023-06-01T12:59:19;5.57;;;3.90;;
61344;SDS011;47216;42.656;23.232;2023-06-01T13:01:47;9.20;;;4.50;;
61344;SDS011;47216;42.656;23.232;2023-06-01T13:04:15;4.45;;;3.40;;
61344;SDS011;47216;42.656;23.232;2023-06-01T13:06:41;4.13;;;3.30;;
61344;SDS011;47216;42.656;23.232;2023-06-01T13:09:11;6.07;;;3.40;;
61344;SDS011;47216;42.656;23.232;2023-06-01T13:11:39;5.50;;;2.45;;
61344;SDS011;47216;42.656;23.232;2023-06-01T13:14:06;4.45;;;2.58;;
61344;SDS011;47216;42.656;23.232;2023-06-01T13:16:33;3.10;;;2.80;;
61344;SDS011;47216;42.656;23.232;2023-06-01T13:18:59;5.50;;;2.72;;
61344;SDS011;47216;42.656;23.232;2023-06-01T13:21:29;5.35;;;2.85;;
61344;SDS011;47216;42.656;23.232;2023-06-01T13:23:56;3.50;;;2.53;;
61344;SDS011;47216;42.656;23.232;2023-06-01T13:26:24;3.13;;;2.58;;
61344;SDS011;47216;42.656;23.232;2023-06-01T13:28:51;3.25;;;2.58;;
61344;SDS011;47216;42.656;23.232;2023-06-01T13:31:18;2.75;;;2.15;;
61344;SDS011;47216;42.656;23.232;2023-06-01T13:33:46;2.25;;;2.03;;
61344;SDS011;47216;42.656;23.232;2023-06-01T13:36:13;3.38;;;2.60;;
61344;SDS011;47216;42.656;23.232;2023-06-01T13:38:40;6.22;;;3.95;;
61344;SDS011;47216;42.656;23.232;2023-06-01T13:41:07;4.05;;;3.63;;
61344;SDS011;47216;42.656;23.232;2023-06-01T13:43:35;4.25;;;2.78;;
61344;SDS011;47216;42.656;23.232;2023-06-01T13:46:03;4.50;;;2.10;;
61344;SDS011;47216;42.656;23.232;2023-06-01T13:48:29;5.82;;;1.90;;
61344;SDS011;47216;42.656;23.232;2023-06-01T13:50:58;1.50;;;1.30;;
61344;SDS011;47216;42.656;23.232;2023-06-01T13:53:25;1.88;;;1.55;;
61344;SDS011;47216;42.656;23.232;2023-06-01T13:55:51;3.63;;;1.73;;
61344;SDS011;47216;42.656;23.232;2023-06-01T13:58:19;2.10;;;1.27;;
61344;SDS011;47216;42.656;23.232;2023-06-01T14:00:47;1.30;;;1.20;;
61344;SDS011;47216;42.656;23.232;2023-06-01T14:03:14;1.38;;;1.17;;
61344;SDS011;47216;42.656;23.232;2023-06-01T14:05:40;5.28;;;1.65;;
61344;SDS011;47216;42.656;23.232;2023-06-01T14:08:07;2.30;;;1.80;;
61344;SDS011;47216;42.656;23.232;2023-06-01T14:10:34;4.32;;;1.50;;
61344;SDS011;47216;42.656;23.232;2023-06-01T14:13:01;2.00;;;1.63;;
61344;SDS011;47216;42.656;23.232;2023-06-01T14:15:28;3.40;;;1.75;;
61344;SDS011;47216;42.656;23.232;2023-06-01T14:17:56;1.92;;;1.70;;
61344;SDS011;47216;42.656;23.232;2023-06-01T14:20:23;2.20;;;1.52;;
61344;SDS011;47216;42.656;23.232;2023-06-01T14:22:51;3.55;;;2.00;;
61344;SDS011;47216;42.656;23.232;2023-06-01T14:25:17;2.33;;;1.85;;
61344;SDS011;47216;42.656;23.232;2023-06-01T14:27:45;8.57;;;2.10;;
61344;SDS011;47216;42.656;23.232;2023-06-01T14:30:12;3.10;;;1.90;;
61344;SDS011;47216;42.656;23.232;2023-06-01T14:32:39;2.70;;;1.90;;
61344;SDS011;47216;42.656;23.232;2023-06-01T14:35:08;2.05;;;1.70;;
61344;SDS011;47216;42.656;23.232;2023-06-01T14:37:40;2.58;;;2.17;;
61344;SDS011;47216;42.656;23.232;2023-06-01T14:40:07;7.13;;;2.53;;
61344;SDS011;47216;42.656;23.232;2023-06-01T14:42:35;7.03;;;2.60;;
61344;SDS011;47216;42.656;23.232;2023-06-01T14:45:03;3.13;;;2.53;;
61344;SDS011;47216;42.656;23.232;2023-06-01T14:47:31;3.10;;;2.60;;
61344;SDS011;47216;42.656;23.232;2023-06-01T14:49:58;10.65;;;3.22;;